createdAt,value
2023-12-29T00:00:48.996Z,0.82
2023-12-29T00:03:15.699Z,0.30
2023-12-29T00:05:42.326Z,0.30
2023-12-29T00:08:08.804Z,0.38
2023-12-29T00:10:35.314Z,1.48
2023-12-29T00:13:01.847Z,0.20
2023-12-29T00:15:28.419Z,0.30
2023-12-29T00:17:55.152Z,0.30
2023-12-29T00:20:29.286Z,0.47
2023-12-29T00:23:04.248Z,0.30
2023-12-29T00:25:30.720Z,1.27
2023-12-29T00:27:58.295Z,0.75
2023-12-29T00:30:28.027Z,0.20
2023-12-29T00:32:58.612Z,0.40
2023-12-29T00:35:25.238Z,0.52
2023-12-29T00:37:51.860Z,0.30
2023-12-29T00:40:18.348Z,0.28
2023-12-29T00:42:44.905Z,1.23
2023-12-29T00:45:11.601Z,0.40
2023-12-29T00:47:38.143Z,1.15
2023-12-29T00:50:05.052Z,0.73
2023-12-29T00:52:31.781Z,1.05
2023-12-29T00:54:58.394Z,0.57
2023-12-29T00:57:24.958Z,0.40
2023-12-29T00:59:51.494Z,0.60
2023-12-29T01:02:17.986Z,0.40
2023-12-29T01:04:44.621Z,0.65
2023-12-29T01:07:11.275Z,0.30
2023-12-29T01:09:41.587Z,0.57
2023-12-29T01:12:08.260Z,0.30
2023-12-29T01:14:34.748Z,0.40
2023-12-29T01:17:01.236Z,0.20
2023-12-29T01:19:27.865Z,0.45
2023-12-29T01:21:54.548Z,0.30
2023-12-29T01:24:26.780Z,0.52
2023-12-29T01:26:59.709Z,0.43
2023-12-29T01:29:26.203Z,0.38
2023-12-29T01:31:52.688Z,0.30
2023-12-29T01:34:19.354Z,0.82
2023-12-29T01:36:45.877Z,0.32
2023-12-29T01:39:12.409Z,0.57
2023-12-29T01:41:38.901Z,0.40
2023-12-29T01:44:18.303Z,0.20
2023-12-29T01:46:44.950Z,0.30
2023-12-29T01:49:11.915Z,0.32
2023-12-29T01:51:38.593Z,0.30
2023-12-29T01:54:05.153Z,0.30
2023-12-29T01:56:31.768Z,0.63
2023-12-29T01:59:05.452Z,0.30
2023-12-29T02:01:38.973Z,0.40
2023-12-29T02:04:06.331Z,0.30
2023-12-29T02:06:33.118Z,0.52
2023-12-29T02:08:59.999Z,1.65
2023-12-29T02:11:27.222Z,0.30
2023-12-29T02:13:53.826Z,0.28
2023-12-29T02:16:24.270Z,0.30
2023-12-29T02:18:51.699Z,0.40
2023-12-29T02:21:18.289Z,0.40
2023-12-29T02:23:44.811Z,0.40
2023-12-29T02:26:12.925Z,0.35
2023-12-29T02:28:44.179Z,0.30
2023-12-29T02:31:19.097Z,0.40
2023-12-29T02:33:47.351Z,0.40
2023-12-29T02:36:14.621Z,0.68
2023-12-29T02:38:41.287Z,0.40
2023-12-29T02:41:07.989Z,0.30
2023-12-29T02:43:34.924Z,0.32
2023-12-29T02:46:01.600Z,0.30
2023-12-29T02:48:28.236Z,0.30
2023-12-29T02:50:54.882Z,1.48
2023-12-29T02:53:21.422Z,0.30
2023-12-29T02:55:47.889Z,0.73
2023-12-29T02:58:14.641Z,0.30
2023-12-29T03:00:41.345Z,0.30
2023-12-29T03:03:07.997Z,0.70
2023-12-29T03:05:34.651Z,0.40
2023-12-29T03:08:01.481Z,0.30
2023-12-29T03:10:28.124Z,0.28
2023-12-29T03:12:54.659Z,0.28
2023-12-29T03:15:21.154Z,0.40
2023-12-29T03:17:47.732Z,0.20
2023-12-29T03:20:14.728Z,0.30
2023-12-29T03:22:41.180Z,1.10
2023-12-29T03:25:07.905Z,0.25
2023-12-29T03:27:34.486Z,0.30
2023-12-29T03:30:01.024Z,0.47
2023-12-29T03:32:27.555Z,0.30
2023-12-29T03:34:54.127Z,0.25
2023-12-29T03:37:20.843Z,0.30
2023-12-29T03:39:47.845Z,0.20
2023-12-29T03:42:14.673Z,0.40
2023-12-29T03:44:41.198Z,0.30
2023-12-29T03:47:07.701Z,0.30
2023-12-29T03:49:35.517Z,0.32
2023-12-29T03:52:02.245Z,1.02
2023-12-29T03:54:28.825Z,0.38
2023-12-29T03:56:55.311Z,0.30
2023-12-29T03:59:21.848Z,0.30
2023-12-29T04:01:48.519Z,0.35
2023-12-29T04:04:15.186Z,0.60
2023-12-29T04:06:41.819Z,0.63
2023-12-29T04:09:09.196Z,0.30
2023-12-29T04:11:36.156Z,1.40
2023-12-29T04:14:02.664Z,0.40
2023-12-29T04:16:29.136Z,0.30
2023-12-29T04:18:55.789Z,0.68
2023-12-29T04:21:22.360Z,0.30
2023-12-29T04:23:48.850Z,0.35
2023-12-29T04:26:15.315Z,0.50
2023-12-29T04:28:43.162Z,0.40
2023-12-29T04:31:09.733Z,0.30
2023-12-29T04:33:36.388Z,0.60
2023-12-29T04:36:03.859Z,0.40
2023-12-29T04:38:30.427Z,0.40
2023-12-29T04:40:57.098Z,0.50
2023-12-29T04:43:23.588Z,0.30
2023-12-29T04:45:50.172Z,0.40
2023-12-29T04:48:16.694Z,0.40
2023-12-29T04:50:43.272Z,0.70
2023-12-29T04:53:09.777Z,1.17
2023-12-29T04:55:36.450Z,0.63
2023-12-29T04:58:03.248Z,0.82
2023-12-29T05:00:29.936Z,0.75
2023-12-29T05:02:56.821Z,2.05
2023-12-29T05:05:23.369Z,1.75
2023-12-29T05:07:49.868Z,4.20
2023-12-29T05:10:16.525Z,1.02
2023-12-29T05:12:43.049Z,1.38
2023-12-29T05:15:09.663Z,5.10
2023-12-29T05:17:36.214Z,1.27
2023-12-29T05:20:03.009Z,0.90
2023-12-29T05:22:29.559Z,1.55
2023-12-29T05:25:00.644Z,1.85
2023-12-29T05:27:27.963Z,3.05
2023-12-29T05:29:54.462Z,1.88
2023-12-29T05:32:20.993Z,0.90
2023-12-29T05:34:47.498Z,1.13
2023-12-29T05:37:14.035Z,3.65
2023-12-29T05:39:42.938Z,1.20
2023-12-29T05:42:09.525Z,1.85
2023-12-29T05:44:38.922Z,1.30
2023-12-29T05:47:05.844Z,1.95
2023-12-29T05:49:33.272Z,2.00
2023-12-29T05:51:59.955Z,1.42
2023-12-29T05:54:26.548Z,1.77
2023-12-29T05:56:53.047Z,2.45
2023-12-29T05:59:19.578Z,3.67
2023-12-29T06:01:46.214Z,1.27
2023-12-29T06:04:12.962Z,1.70
2023-12-29T06:06:39.514Z,0.88
2023-12-29T06:09:06.052Z,2.22
2023-12-29T06:11:32.533Z,0.75
2023-12-29T06:13:59.303Z,2.17
2023-12-29T06:16:28.060Z,1.38
2023-12-29T06:18:54.689Z,1.83
2023-12-29T06:21:21.261Z,1.35
2023-12-29T06:23:47.870Z,1.35
2023-12-29T06:26:18.160Z,1.60
2023-12-29T06:28:45.242Z,2.78
2023-12-29T06:31:11.894Z,1.85
2023-12-29T06:33:41.694Z,0.70
2023-12-29T06:36:08.448Z,1.52
2023-12-29T06:38:34.944Z,0.80
2023-12-29T06:41:02.730Z,2.88
2023-12-29T06:43:29.230Z,0.98
2023-12-29T06:45:55.809Z,3.55
2023-12-29T06:48:22.454Z,2.60
2023-12-29T06:50:49.007Z,1.80
2023-12-29T06:53:15.808Z,1.20
2023-12-29T06:55:42.316Z,4.95
2023-12-29T06:58:09.532Z,1.77
2023-12-29T07:00:36.188Z,2.95
2023-12-29T07:03:02.882Z,2.70
2023-12-29T07:05:29.522Z,2.17
2023-12-29T07:07:56.089Z,3.10
2023-12-29T07:10:22.716Z,4.72
2023-12-29T07:12:49.361Z,2.75
2023-12-29T07:15:15.897Z,2.85
2023-12-29T07:17:42.566Z,1.85
2023-12-29T07:20:09.522Z,3.35
2023-12-29T07:22:36.056Z,5.35
2023-12-29T07:25:02.623Z,1.20
2023-12-29T07:27:29.296Z,3.17
2023-12-29T07:29:55.766Z,2.60
2023-12-29T07:32:22.595Z,2.38
2023-12-29T07:34:50.474Z,3.90
2023-12-29T07:37:17.176Z,1.85
2023-12-29T07:39:43.991Z,4.03
2023-12-29T07:42:11.305Z,2.47
2023-12-29T07:44:37.781Z,1.80
2023-12-29T07:47:04.399Z,3.67
2023-12-29T07:49:31.037Z,1.42
2023-12-29T07:52:00.661Z,2.90
2023-12-29T07:54:27.836Z,1.88
2023-12-29T07:56:54.424Z,2.47
2023-12-29T07:59:20.957Z,3.55
2023-12-29T08:01:47.553Z,1.38
2023-12-29T08:04:15.798Z,1.30
2023-12-29T08:06:42.600Z,3.72
2023-12-29T08:09:09.328Z,1.73
2023-12-29T08:11:35.813Z,1.95
2023-12-29T08:14:02.734Z,4.65
2023-12-29T08:16:29.241Z,4.72
2023-12-29T08:18:55.894Z,2.17
2023-12-29T08:21:22.683Z,1.92
2023-12-29T08:23:49.636Z,3.72
2023-12-29T08:26:16.240Z,2.53
2023-12-29T08:28:42.756Z,2.70
2023-12-29T08:31:09.719Z,2.95
2023-12-29T08:33:36.404Z,3.90
2023-12-29T08:36:04.862Z,1.05
2023-12-29T08:38:34.465Z,2.78
2023-12-29T08:41:01.078Z,1.95
2023-12-29T08:43:27.832Z,2.08
2023-12-29T08:45:55.406Z,1.55
2023-12-29T08:48:22.274Z,3.95
2023-12-29T08:50:49.010Z,2.35
2023-12-29T08:53:16.736Z,1.10
2023-12-29T08:55:43.472Z,1.98
2023-12-29T08:58:10.341Z,1.52
2023-12-29T09:00:37.030Z,2.50
2023-12-29T09:03:04.178Z,1.67
2023-12-29T09:05:30.677Z,4.22
2023-12-29T09:07:57.452Z,2.78
2023-12-29T09:10:24.154Z,3.20
2023-12-29T09:12:50.908Z,3.47
2023-12-29T09:15:17.476Z,4.35
2023-12-29T09:17:43.992Z,3.67
2023-12-29T09:20:11.885Z,1.20
2023-12-29T09:22:39.202Z,4.20
2023-12-29T09:25:06.113Z,1.90
2023-12-29T09:27:32.697Z,4.50
2023-12-29T09:29:59.217Z,3.33
2023-12-29T09:32:25.802Z,2.78
2023-12-29T09:34:52.890Z,2.88
2023-12-29T09:37:19.565Z,0.90
2023-12-29T09:39:46.166Z,2.58
2023-12-29T09:42:17.567Z,3.40
2023-12-29T09:44:44.841Z,2.38
2023-12-29T09:47:12.351Z,1.42
2023-12-29T09:49:42.886Z,5.13
2023-12-29T09:52:10.967Z,2.85
2023-12-29T09:54:37.912Z,3.20
2023-12-29T09:57:08.100Z,3.22
2023-12-29T09:59:37.675Z,2.38
2023-12-29T10:02:05.732Z,3.60
2023-12-29T10:04:32.504Z,1.73
2023-12-29T10:07:04.857Z,2.13
2023-12-29T10:09:32.474Z,4.15
2023-12-29T10:11:59.523Z,5.78
2023-12-29T10:14:27.907Z,3.58
2023-12-29T10:16:57.796Z,4.53
2023-12-29T10:19:30.381Z,3.15
2023-12-29T10:22:03.892Z,2.65
2023-12-29T10:24:30.710Z,4.43
2023-12-29T10:26:57.266Z,3.45
2023-12-29T10:29:25.083Z,3.20
2023-12-29T10:31:51.689Z,2.13
2023-12-29T10:34:31.496Z,4.15
2023-12-29T10:36:58.521Z,3.53
2023-12-29T10:39:25.865Z,2.80
2023-12-29T10:42:06.173Z,3.65
2023-12-29T10:44:33.241Z,5.20
2023-12-29T10:46:59.979Z,1.65
2023-12-29T10:49:26.594Z,2.05
2023-12-29T10:51:53.268Z,2.88
2023-12-29T10:54:25.832Z,2.75
2023-12-29T10:57:01.670Z,10.98
2023-12-29T10:59:28.236Z,5.47
2023-12-29T11:01:55.182Z,2.42
2023-12-29T11:04:24.662Z,6.43
2023-12-29T11:06:52.530Z,3.20
2023-12-29T11:09:28.497Z,4.95
2023-12-29T11:11:55.340Z,3.40
2023-12-29T11:14:21.946Z,2.05
2023-12-29T11:16:48.618Z,5.30
2023-12-29T11:19:15.994Z,1.60
2023-12-29T11:21:43.580Z,5.55
2023-12-29T11:24:11.512Z,17.75
2023-12-29T11:26:39.655Z,5.75
2023-12-29T11:29:06.575Z,1.63
2023-12-29T11:31:33.373Z,3.50
2023-12-29T11:34:07.834Z,3.53
2023-12-29T11:36:36.500Z,3.15
2023-12-29T11:39:07.519Z,3.47
2023-12-29T11:41:52.627Z,2.90
2023-12-29T11:44:25.849Z,3.30
2023-12-29T11:46:54.595Z,1.92
2023-12-29T11:49:21.202Z,4.43
2023-12-29T11:51:50.462Z,3.88
2023-12-29T11:54:22.888Z,6.25
2023-12-29T11:56:49.643Z,4.78
2023-12-29T11:59:20.474Z,3.17
2023-12-29T12:02:07.070Z,5.15
2023-12-29T12:04:42.549Z,6.00
2023-12-29T12:07:14.074Z,5.00
2023-12-29T12:09:40.571Z,3.53
2023-12-29T12:12:07.224Z,4.35
2023-12-29T12:14:45.552Z,2.92
2023-12-29T12:17:12.595Z,5.45
2023-12-29T12:19:39.353Z,4.50
2023-12-29T12:22:07.507Z,3.60
2023-12-29T12:24:35.112Z,3.92
2023-12-29T12:27:03.415Z,3.08
2023-12-29T12:29:30.346Z,3.45
2023-12-29T12:31:57.113Z,7.03
2023-12-29T12:34:25.209Z,3.92
2023-12-29T12:36:52.638Z,3.83
2023-12-29T12:39:19.218Z,4.45
2023-12-29T12:41:47.285Z,4.20
2023-12-29T12:44:14.826Z,4.53
2023-12-29T12:46:58.335Z,6.80
2023-12-29T12:49:25.020Z,6.40
2023-12-29T12:51:51.894Z,9.82
2023-12-29T12:54:20.242Z,5.30
2023-12-29T12:56:47.620Z,3.95
2023-12-29T12:59:14.626Z,5.60
2023-12-29T13:01:41.977Z,4.28
2023-12-29T13:04:09.656Z,5.15
2023-12-29T13:06:41.646Z,5.10
2023-12-29T13:09:12.708Z,3.55
2023-12-29T13:11:39.962Z,6.05
2023-12-29T13:14:06.631Z,5.78
2023-12-29T13:16:34.025Z,3.72
2023-12-29T13:19:22.861Z,9.10
2023-12-29T13:21:51.244Z,5.55
2023-12-29T13:24:18.133Z,3.05
2023-12-29T13:26:46.203Z,4.47
2023-12-29T13:29:14.083Z,6.13
2023-12-29T13:31:41.001Z,2.70
2023-12-29T13:34:12.907Z,8.07
2023-12-29T13:36:39.538Z,5.18
2023-12-29T13:39:16.529Z,3.33
2023-12-29T13:41:43.736Z,3.95
2023-12-29T13:44:10.505Z,3.92
2023-12-29T13:46:37.712Z,2.95
2023-12-29T13:49:05.274Z,4.70
2023-12-29T13:51:31.892Z,4.28
2023-12-29T13:54:02.115Z,3.90
2023-12-29T13:56:28.975Z,4.88
2023-12-29T13:58:55.939Z,3.35
2023-12-29T14:01:22.533Z,3.75
2023-12-29T14:03:55.982Z,1.75
2023-12-29T14:06:27.907Z,3.83
2023-12-29T14:08:54.387Z,7.50
2023-12-29T14:11:21.038Z,5.97
2023-12-29T14:13:49.304Z,3.42
2023-12-29T14:16:17.299Z,5.13
2023-12-29T14:18:45.899Z,5.88
2023-12-29T14:21:32.861Z,5.47
2023-12-29T14:24:04.172Z,3.20
2023-12-29T14:26:31.219Z,2.47
2023-12-29T14:29:07.986Z,5.03
2023-12-29T14:31:36.709Z,4.57
2023-12-29T14:34:03.909Z,2.58
2023-12-29T14:36:30.890Z,2.40
2023-12-29T14:38:57.353Z,4.05
2023-12-29T14:41:25.142Z,3.75
2023-12-29T14:43:52.311Z,4.18
2023-12-29T14:46:18.873Z,4.03
2023-12-29T14:48:45.609Z,5.85
2023-12-29T14:51:12.545Z,3.03
2023-12-29T14:53:39.298Z,3.30
2023-12-29T14:56:06.147Z,2.83
2023-12-29T14:58:33.541Z,5.00
2023-12-29T15:01:00.142Z,3.60
2023-12-29T15:03:26.964Z,3.88
2023-12-29T15:05:53.833Z,5.43
2023-12-29T15:08:20.764Z,3.72
2023-12-29T15:10:47.286Z,4.00
2023-12-29T15:13:13.801Z,5.28
2023-12-29T15:15:40.815Z,2.40
2023-12-29T15:18:07.875Z,5.40
2023-12-29T15:20:34.782Z,3.65
2023-12-29T15:23:03.436Z,2.75
2023-12-29T15:25:30.060Z,1.98
2023-12-29T15:27:56.622Z,5.50
2023-12-29T15:30:23.301Z,4.32
2023-12-29T15:32:49.792Z,3.80
2023-12-29T15:35:16.252Z,3.60
2023-12-29T15:37:42.755Z,3.47
2023-12-29T15:40:09.679Z,1.95
2023-12-29T15:42:36.178Z,3.55
2023-12-29T15:45:02.756Z,3.97
2023-12-29T15:47:29.291Z,4.15
2023-12-29T15:49:55.853Z,2.47
2023-12-29T15:52:22.506Z,5.32
2023-12-29T15:54:49.070Z,6.00
2023-12-29T15:57:15.565Z,3.30
2023-12-29T15:59:42.127Z,2.63
2023-12-29T16:02:09.117Z,2.60
2023-12-29T16:04:35.707Z,4.88
2023-12-29T16:07:02.239Z,3.78
2023-12-29T16:09:28.904Z,3.10
2023-12-29T16:11:55.966Z,7.22
2023-12-29T16:14:22.586Z,2.92
2023-12-29T16:16:49.219Z,3.85
2023-12-29T16:19:15.805Z,3.53
2023-12-29T16:21:43.214Z,3.25
2023-12-29T16:24:20.625Z,4.07
2023-12-29T16:26:48.319Z,2.90
2023-12-29T16:29:15.401Z,2.40
2023-12-29T16:31:42.068Z,3.05
2023-12-29T16:34:08.871Z,4.05
2023-12-29T16:36:35.452Z,3.65
2023-12-29T16:39:01.985Z,3.58
2023-12-29T16:41:28.534Z,4.90
2023-12-29T16:43:55.088Z,2.83
2023-12-29T16:46:21.660Z,1.10
2023-12-29T16:48:48.310Z,2.55
2023-12-29T16:51:14.937Z,5.60
2023-12-29T16:53:41.432Z,4.32
2023-12-29T16:56:08.150Z,1.90
2023-12-29T16:58:35.493Z,2.22
2023-12-29T17:01:02.082Z,4.20
2023-12-29T17:03:32.158Z,1.45
2023-12-29T17:05:58.649Z,0.82
2023-12-29T17:08:25.261Z,1.92
2023-12-29T17:10:51.855Z,2.78
2023-12-29T17:13:18.393Z,1.92
2023-12-29T17:15:45.137Z,3.28
2023-12-29T17:18:12.335Z,2.58
2023-12-29T17:20:39.264Z,0.80
2023-12-29T17:23:05.803Z,1.30
2023-12-29T17:25:39.482Z,1.88
2023-12-29T17:28:12.582Z,3.78
2023-12-29T17:30:39.114Z,2.38
2023-12-29T17:33:05.946Z,3.50
2023-12-29T17:35:32.570Z,2.13
2023-12-29T17:37:59.057Z,1.45
2023-12-29T17:40:25.596Z,2.70
2023-12-29T17:42:52.161Z,1.83
2023-12-29T17:45:18.623Z,1.10
2023-12-29T17:47:45.248Z,4.13
2023-12-29T17:50:15.787Z,3.20
2023-12-29T17:52:42.425Z,1.33
2023-12-29T17:55:09.246Z,1.40
2023-12-29T17:57:37.932Z,1.58
2023-12-29T18:00:05.027Z,1.90
2023-12-29T18:02:33.338Z,1.90
2023-12-29T18:04:59.911Z,1.33
2023-12-29T18:07:26.473Z,1.00
2023-12-29T18:09:53.484Z,1.30
2023-12-29T18:12:19.991Z,1.00
2023-12-29T18:14:46.672Z,1.15
2023-12-29T18:17:15.329Z,1.80
2023-12-29T18:19:43.059Z,1.60
2023-12-29T18:22:09.739Z,0.93
2023-12-29T18:24:36.439Z,0.60
2023-12-29T18:27:02.990Z,1.20
2023-12-29T18:29:29.532Z,1.58
2023-12-29T18:32:18.102Z,1.17
2023-12-29T18:34:42.707Z,1.45
2023-12-29T18:37:09.495Z,1.17
2023-12-29T18:39:38.325Z,1.10
2023-12-29T18:42:05.885Z,1.98
2023-12-29T18:44:32.839Z,2.72
2023-12-29T18:46:59.751Z,2.22
2023-12-29T18:49:26.521Z,1.38
2023-12-29T18:51:56.322Z,3.05
2023-12-29T18:54:23.417Z,1.55
2023-12-29T18:56:49.932Z,1.73
2023-12-29T18:59:16.510Z,1.00
2023-12-29T19:01:49.210Z,1.10
2023-12-29T19:04:16.028Z,1.00
2023-12-29T19:06:45.879Z,1.67
2023-12-29T19:09:15.050Z,1.27
2023-12-29T19:11:41.739Z,1.30
2023-12-29T19:14:08.292Z,2.58
2023-12-29T19:16:34.839Z,1.67
2023-12-29T19:19:02.198Z,1.17
2023-12-29T19:21:31.189Z,1.02
2023-12-29T19:23:57.674Z,1.60
2023-12-29T19:26:25.341Z,1.10
2023-12-29T19:28:52.772Z,1.10
2023-12-29T19:31:21.241Z,2.20
2023-12-29T19:33:48.210Z,2.45
2023-12-29T19:36:17.913Z,2.60
2023-12-29T19:38:46.938Z,1.95
2023-12-29T19:41:14.247Z,3.13
2023-12-29T19:43:41.544Z,2.08
2023-12-29T19:46:08.682Z,2.40
2023-12-29T19:48:35.399Z,1.98
2023-12-29T19:51:02.013Z,2.08
2023-12-29T19:53:28.992Z,1.35
2023-12-29T19:55:55.701Z,0.82
2023-12-29T19:58:22.246Z,1.58
2023-12-29T20:00:48.995Z,2.75
2023-12-29T20:03:15.706Z,4.53
2023-12-29T20:05:42.547Z,3.08
2023-12-29T20:08:09.296Z,6.40
2023-12-29T20:10:37.101Z,3.40
2023-12-29T20:13:04.334Z,3.45
2023-12-29T20:15:31.347Z,1.95
2023-12-29T20:17:58.281Z,0.85
2023-12-29T20:20:24.790Z,3.05
2023-12-29T20:22:51.284Z,1.83
2023-12-29T20:25:17.946Z,0.68
2023-12-29T20:27:44.490Z,1.20
2023-12-29T20:30:11.382Z,2.58
2023-12-29T20:32:37.963Z,1.58
2023-12-29T20:35:04.832Z,2.78
2023-12-29T20:37:31.357Z,1.35
2023-12-29T20:39:59.581Z,0.80
2023-12-29T20:42:26.238Z,0.93
2023-12-29T20:44:52.769Z,2.05
2023-12-29T20:47:19.291Z,0.85
2023-12-29T20:49:45.877Z,0.52
2023-12-29T20:52:12.383Z,0.60
2023-12-29T20:54:40.559Z,0.63
2023-12-29T20:57:07.449Z,0.65
2023-12-29T20:59:36.980Z,0.43
2023-12-29T21:02:06.039Z,0.50
2023-12-29T21:04:32.779Z,1.92
2023-12-29T21:07:02.238Z,1.15
2023-12-29T21:09:28.782Z,0.70
2023-12-29T21:11:55.291Z,0.70
2023-12-29T21:14:22.969Z,0.50
2023-12-29T21:16:51.092Z,0.90
2023-12-29T21:19:17.781Z,0.93
2023-12-29T21:21:47.916Z,0.50
2023-12-29T21:24:14.634Z,0.63
2023-12-29T21:26:41.500Z,2.20
2023-12-29T21:29:08.320Z,0.68
2023-12-29T21:31:35.982Z,3.30
2023-12-29T21:34:04.617Z,1.35
2023-12-29T21:36:31.572Z,1.30
2023-12-29T21:38:58.538Z,0.50
2023-12-29T21:41:25.424Z,0.70
2023-12-29T21:43:51.993Z,1.08
2023-12-29T21:46:18.687Z,1.35
2023-12-29T21:48:45.521Z,0.70
2023-12-29T21:51:12.295Z,0.85
2023-12-29T21:53:38.801Z,2.13
2023-12-29T21:56:05.508Z,1.65
2023-12-29T21:58:32.225Z,1.05
2023-12-29T22:01:18.822Z,2.90
2023-12-29T22:03:45.422Z,1.20
2023-12-29T22:06:11.940Z,1.98
2023-12-29T22:08:40.284Z,0.82
2023-12-29T22:11:07.040Z,0.80
2023-12-29T22:13:33.642Z,0.50
2023-12-29T22:16:00.218Z,1.40
2023-12-29T22:18:26.851Z,0.80
2023-12-29T22:20:53.368Z,1.58
2023-12-29T22:23:19.946Z,1.35
2023-12-29T22:25:49.456Z,0.82
2023-12-29T22:28:16.149Z,0.70
2023-12-29T22:30:42.788Z,1.58
2023-12-29T22:33:09.796Z,0.93
2023-12-29T22:35:36.569Z,1.40
2023-12-29T22:38:04.175Z,1.33
2023-12-29T22:40:34.280Z,0.45
2023-12-29T22:43:01.504Z,3.17
2023-12-29T22:45:28.534Z,0.52
2023-12-29T22:47:55.109Z,1.15
2023-12-29T22:50:21.645Z,0.57
2023-12-29T22:52:48.121Z,0.38
2023-12-29T22:55:14.654Z,0.60
2023-12-29T22:57:41.181Z,2.08
2023-12-29T23:00:11.951Z,0.77
2023-12-29T23:02:38.743Z,1.45
2023-12-29T23:05:05.547Z,1.48
2023-12-29T23:07:32.074Z,4.45
2023-12-29T23:09:58.609Z,1.40
2023-12-29T23:12:25.263Z,0.50
2023-12-29T23:14:51.855Z,0.60
2023-12-29T23:17:18.385Z,1.88
2023-12-29T23:19:45.290Z,0.47
2023-12-29T23:22:11.847Z,0.80
2023-12-29T23:24:38.499Z,1.35
2023-12-29T23:27:05.099Z,2.17
2023-12-29T23:29:31.671Z,2.25
2023-12-29T23:31:58.147Z,1.13
2023-12-29T23:34:24.886Z,1.05
2023-12-29T23:36:51.499Z,1.00
2023-12-29T23:39:17.969Z,0.63
2023-12-29T23:41:44.482Z,1.05
2023-12-29T23:44:11.353Z,1.23
2023-12-29T23:46:37.828Z,0.75
2023-12-29T23:49:04.370Z,2.58
2023-12-29T23:51:30.895Z,0.70
2023-12-29T23:53:57.390Z,2.50
2023-12-29T23:56:23.879Z,0.40
2023-12-29T23:58:51.541Z,0.40
